createdAt,value
2019-03-22T00:00:13.826Z,9.80
2019-03-22T00:02:42.909Z,10.20
2019-03-22T00:05:11.241Z,10.10
2019-03-22T00:07:39.240Z,9.80
2019-03-22T00:10:07.903Z,9.70
2019-03-22T00:12:36.454Z,9.40
2019-03-22T00:15:05.170Z,9.10
2019-03-22T00:17:33.468Z,9.00
2019-03-22T00:20:01.522Z,8.90
2019-03-22T00:22:29.809Z,9.00
2019-03-22T00:24:57.853Z,9.00
2019-03-22T00:27:25.955Z,9.30
2019-03-22T00:29:54.270Z,8.80
2019-03-22T00:32:22.474Z,8.30
2019-03-22T00:34:51.072Z,9.20
2019-03-22T00:37:19.546Z,9.00
2019-03-22T00:39:47.635Z,8.90
2019-03-22T00:42:16.107Z,8.80
2019-03-22T00:44:44.110Z,8.90
2019-03-22T00:47:12.095Z,9.20
2019-03-22T00:49:40.444Z,9.00
2019-03-22T00:52:08.807Z,8.90
2019-03-22T00:54:37.100Z,8.90
2019-03-22T00:57:05.222Z,9.00
2019-03-22T00:59:33.415Z,9.00
2019-03-22T01:02:01.527Z,8.80
2019-03-22T01:04:29.626Z,9.10
2019-03-22T01:06:57.662Z,8.90
2019-03-22T01:09:26.004Z,8.80
2019-03-22T01:11:54.709Z,8.90
2019-03-22T01:14:23.094Z,8.90
2019-03-22T01:16:51.163Z,8.80
2019-03-22T01:19:19.564Z,8.00
2019-03-22T01:21:47.970Z,8.50
2019-03-22T01:24:16.586Z,8.60
2019-03-22T01:26:44.702Z,8.30
2019-03-22T01:29:12.746Z,8.60
2019-03-22T01:31:41.668Z,8.60
2019-03-22T01:34:09.707Z,8.50
2019-03-22T01:36:37.723Z,8.50
2019-03-22T01:39:06.378Z,8.10
2019-03-22T01:41:34.435Z,8.20
2019-03-22T01:44:03.090Z,8.10
2019-03-22T01:46:31.434Z,7.90
2019-03-22T01:48:59.798Z,7.90
2019-03-22T01:51:28.386Z,7.40
2019-03-22T01:53:56.781Z,7.50
2019-03-22T01:56:25.478Z,7.20
2019-03-22T01:58:53.497Z,7.20
2019-03-22T02:01:21.798Z,6.70
2019-03-22T02:03:50.262Z,7.10
2019-03-22T02:06:18.554Z,7.00
2019-03-22T02:08:47.342Z,7.20
2019-03-22T02:11:15.383Z,7.10
2019-03-22T02:13:43.410Z,6.70
2019-03-22T02:16:11.781Z,6.80
2019-03-22T02:18:40.198Z,6.30
2019-03-22T02:21:08.227Z,7.20
2019-03-22T02:23:36.774Z,7.20
2019-03-22T02:26:04.822Z,7.40
2019-03-22T02:28:33.129Z,7.50
2019-03-22T02:31:01.226Z,7.40
2019-03-22T02:33:29.294Z,7.40
2019-03-22T02:35:57.323Z,7.00
2019-03-22T02:38:26.423Z,6.90
2019-03-22T02:40:54.426Z,6.70
2019-03-22T02:43:22.410Z,6.60
2019-03-22T02:45:50.511Z,6.70
2019-03-22T02:48:18.818Z,6.80
2019-03-22T02:50:47.603Z,6.80
2019-03-22T02:53:16.179Z,7.10
2019-03-22T02:55:44.272Z,7.00
2019-03-22T02:58:20.661Z,7.00
2019-03-22T03:00:42.931Z,7.50
2019-03-22T03:03:11.099Z,7.20
2019-03-22T03:05:39.538Z,7.10
2019-03-22T03:08:08.366Z,7.30
2019-03-22T03:10:36.658Z,7.10
2019-03-22T03:13:04.726Z,7.30
2019-03-22T03:15:33.437Z,7.10
2019-03-22T03:18:02.244Z,7.10
2019-03-22T03:20:30.378Z,7.00
2019-03-22T03:22:58.502Z,7.10
2019-03-22T03:25:26.854Z,7.10
2019-03-22T03:27:54.987Z,7.10
2019-03-22T03:30:23.161Z,7.20
2019-03-22T03:32:51.329Z,7.10
2019-03-22T03:35:19.457Z,6.70
2019-03-22T03:37:48.492Z,6.80
2019-03-22T03:40:17.975Z,6.70
2019-03-22T03:42:46.103Z,6.60
2019-03-22T03:45:28.224Z,6.70
2019-03-22T03:47:56.923Z,6.90
2019-03-22T03:50:24.995Z,6.80
2019-03-22T03:52:53.998Z,6.30
2019-03-22T03:55:22.443Z,6.40
2019-03-22T03:57:50.503Z,6.60
2019-03-22T04:00:18.818Z,6.40
2019-03-22T04:02:47.047Z,6.40
2019-03-22T04:05:15.122Z,6.60
2019-03-22T04:07:43.640Z,6.60
2019-03-22T04:10:12.371Z,7.10
2019-03-22T04:12:40.508Z,6.80
2019-03-22T04:15:08.603Z,6.80
2019-03-22T04:17:37.764Z,6.80
2019-03-22T04:20:05.975Z,6.60
2019-03-22T04:22:36.286Z,6.70
2019-03-22T04:25:04.673Z,6.60
2019-03-22T04:27:32.756Z,6.50
2019-03-22T04:30:01.142Z,6.60
2019-03-22T04:32:30.195Z,6.80
2019-03-22T04:34:58.963Z,6.30
2019-03-22T04:37:27.429Z,6.40
2019-03-22T04:39:55.640Z,6.20
2019-03-22T04:42:23.679Z,6.50
2019-03-22T04:44:52.016Z,6.40
2019-03-22T04:47:20.853Z,6.30
2019-03-22T04:49:50.820Z,6.30
2019-03-22T04:52:22.865Z,6.30
2019-03-22T04:54:54.692Z,6.40
2019-03-22T04:57:24.498Z,6.30
2019-03-22T04:59:53.554Z,6.50
2019-03-22T05:02:22.325Z,6.40
2019-03-22T05:04:51.115Z,6.40
2019-03-22T05:07:20.383Z,6.30
2019-03-22T05:09:50.282Z,5.90
2019-03-22T05:12:20.143Z,5.80
2019-03-22T05:14:49.119Z,6.20
2019-03-22T05:17:17.885Z,6.20
2019-03-22T05:19:50.242Z,6.40
2019-03-22T05:22:20.822Z,6.20
2019-03-22T05:24:49.139Z,6.20
2019-03-22T05:27:18.669Z,6.30
2019-03-22T05:29:47.604Z,6.20
2019-03-22T05:32:17.349Z,6.20
2019-03-22T05:34:45.358Z,5.80
2019-03-22T05:37:13.410Z,6.00
2019-03-22T05:39:41.549Z,5.60
2019-03-22T05:42:10.265Z,5.60
2019-03-22T05:44:38.539Z,5.80
2019-03-22T05:47:06.853Z,5.80
2019-03-22T05:49:35.182Z,5.70
2019-03-22T05:52:03.426Z,5.80
2019-03-22T05:54:34.263Z,5.80
2019-03-22T05:57:12.807Z,5.90
2019-03-22T05:59:41.912Z,5.90
2019-03-22T06:02:03.613Z,5.70
2019-03-22T06:04:31.718Z,5.50
2019-03-22T06:06:59.691Z,5.80
2019-03-22T06:09:28.146Z,5.80
2019-03-22T06:11:56.910Z,6.20
2019-03-22T06:14:25.042Z,6.20
2019-03-22T06:16:53.062Z,6.30
2019-03-22T06:19:21.435Z,6.40
2019-03-22T06:21:49.811Z,6.60
2019-03-22T06:24:18.212Z,6.40
2019-03-22T06:26:46.947Z,6.60
2019-03-22T06:29:14.950Z,6.70
2019-03-22T06:31:43.039Z,6.70
2019-03-22T06:34:11.198Z,6.60
2019-03-22T06:36:39.227Z,7.10
2019-03-22T06:39:09.115Z,7.00
2019-03-22T06:41:37.879Z,6.90
2019-03-22T06:44:07.554Z,7.10
2019-03-22T06:46:35.878Z,7.20
2019-03-22T06:49:04.302Z,7.10
2019-03-22T06:51:32.317Z,6.90
2019-03-22T06:54:00.672Z,7.10
2019-03-22T06:56:28.970Z,7.50
2019-03-22T06:58:57.000Z,7.80
2019-03-22T07:01:25.814Z,8.10
2019-03-22T07:03:54.106Z,8.40
2019-03-22T07:06:22.122Z,8.60
2019-03-22T07:08:51.608Z,9.80
2019-03-22T07:11:19.691Z,11.80
2019-03-22T07:13:48.056Z,11.70
2019-03-22T07:16:16.102Z,11.10
2019-03-22T07:18:54.443Z,11.40
2019-03-22T07:21:22.593Z,13.20
2019-03-22T07:23:53.046Z,15.60
2019-03-22T07:26:39.178Z,17.70
2019-03-22T07:29:16.091Z,18.80
2019-03-22T07:31:44.232Z,19.70
2019-03-22T07:34:12.382Z,20.00
2019-03-22T07:36:41.209Z,20.60
2019-03-22T07:39:09.354Z,21.20
2019-03-22T07:41:38.175Z,22.80
2019-03-22T07:44:06.311Z,23.60
2019-03-22T07:46:34.430Z,22.90
2019-03-22T07:49:02.510Z,22.50
2019-03-22T07:51:30.830Z,22.80
2019-03-22T07:53:59.212Z,22.60
2019-03-22T07:56:27.826Z,23.10
2019-03-22T07:58:56.195Z,24.00
2019-03-22T08:01:24.504Z,24.70
2019-03-22T08:03:52.893Z,25.30
2019-03-22T08:06:22.146Z,26.00
2019-03-22T08:08:51.076Z,26.50
2019-03-22T08:11:19.973Z,27.10
2019-03-22T08:13:49.241Z,27.80
2019-03-22T08:16:18.241Z,28.30
2019-03-22T08:18:47.213Z,29.00
2019-03-22T08:21:15.355Z,28.40
2019-03-22T08:23:44.130Z,28.10
2019-03-22T08:26:12.520Z,27.80
2019-03-22T08:28:40.558Z,27.60
2019-03-22T08:31:09.318Z,26.80
2019-03-22T08:33:37.758Z,26.10
2019-03-22T08:36:06.180Z,25.50
2019-03-22T08:38:34.591Z,25.20
2019-03-22T08:41:03.274Z,25.10
2019-03-22T08:43:31.718Z,24.90
2019-03-22T08:45:59.889Z,25.10
2019-03-22T08:48:28.407Z,25.70
2019-03-22T08:50:57.687Z,26.40
2019-03-22T08:53:27.027Z,26.90
2019-03-22T08:55:55.107Z,27.00
2019-03-22T08:58:24.213Z,27.30
2019-03-22T09:00:57.775Z,27.60
2019-03-22T09:03:23.302Z,27.70
2019-03-22T09:05:52.800Z,27.90
2019-03-22T09:08:21.388Z,28.30
2019-03-22T09:10:50.334Z,28.10
2019-03-22T09:13:18.405Z,27.70
2019-03-22T09:15:46.986Z,27.80
2019-03-22T09:18:15.655Z,28.40
2019-03-22T09:20:45.607Z,28.40
2019-03-22T09:23:14.059Z,28.70
2019-03-22T09:25:42.201Z,29.20
2019-03-22T09:28:10.498Z,29.30
2019-03-22T09:30:38.630Z,29.00
2019-03-22T09:33:07.794Z,28.50
2019-03-22T09:35:35.938Z,28.10
2019-03-22T09:38:12.861Z,28.10
2019-03-22T09:40:34.628Z,28.40
2019-03-22T09:43:02.762Z,28.80
2019-03-22T09:45:30.859Z,29.10
2019-03-22T09:47:59.010Z,30.00
2019-03-22T09:50:27.145Z,30.40
2019-03-22T09:52:56.546Z,30.30
2019-03-22T09:55:25.438Z,30.20
2019-03-22T09:57:54.132Z,30.50
2019-03-22T10:00:32.873Z,30.30
2019-03-22T10:03:02.150Z,30.20
2019-03-22T10:05:30.567Z,29.60
2019-03-22T10:07:58.797Z,29.60
2019-03-22T10:10:27.627Z,30.00
2019-03-22T10:12:56.040Z,30.00
2019-03-22T10:15:24.330Z,30.00
2019-03-22T10:17:54.396Z,30.10
2019-03-22T10:20:22.943Z,30.30
2019-03-22T10:22:51.624Z,30.50
2019-03-22T10:25:20.587Z,30.30
2019-03-22T10:27:49.823Z,31.00
2019-03-22T10:30:18.186Z,31.10
2019-03-22T10:32:46.227Z,30.30
2019-03-22T10:35:25.517Z,30.20
2019-03-22T10:37:44.600Z,30.40
2019-03-22T10:40:28.640Z,30.50
2019-03-22T10:42:57.402Z,30.70
2019-03-22T10:45:25.903Z,30.80
2019-03-22T10:47:53.983Z,30.60
2019-03-22T10:50:25.105Z,31.30
2019-03-22T10:52:53.700Z,30.90
2019-03-22T10:55:29.606Z,30.90
2019-03-22T10:57:55.354Z,31.20
2019-03-22T11:00:22.647Z,31.00
2019-03-22T11:02:51.267Z,30.80
2019-03-22T11:05:19.622Z,31.10
2019-03-22T11:07:48.340Z,30.80
2019-03-22T11:10:16.516Z,30.60
2019-03-22T11:12:44.722Z,30.80
2019-03-22T11:15:13.184Z,31.20
2019-03-22T11:17:41.841Z,31.20
2019-03-22T11:20:11.526Z,31.10
2019-03-22T11:22:40.045Z,30.40
2019-03-22T11:25:08.884Z,30.10
2019-03-22T11:27:38.643Z,29.70
2019-03-22T11:30:08.159Z,29.30
2019-03-22T11:32:36.792Z,29.50
2019-03-22T11:35:05.744Z,29.50
2019-03-22T11:37:34.046Z,29.30
2019-03-22T11:40:02.282Z,29.90
2019-03-22T11:42:30.988Z,30.20
2019-03-22T11:44:59.397Z,29.90
2019-03-22T11:47:27.770Z,29.70
2019-03-22T11:49:56.435Z,29.40
2019-03-22T11:52:24.579Z,29.30
2019-03-22T11:54:53.773Z,29.50
2019-03-22T11:57:22.232Z,29.60
2019-03-22T11:59:50.950Z,29.80
2019-03-22T12:02:22.631Z,29.90
2019-03-22T12:04:51.270Z,29.90
2019-03-22T12:07:19.891Z,29.50
2019-03-22T12:09:47.973Z,29.80
2019-03-22T12:12:16.127Z,30.00
2019-03-22T12:14:45.483Z,30.10
2019-03-22T12:17:13.618Z,30.20
2019-03-22T12:19:41.610Z,30.00
2019-03-22T12:22:17.711Z,29.80
2019-03-22T12:24:46.463Z,29.60
2019-03-22T12:27:14.612Z,29.60
2019-03-22T12:29:43.351Z,29.90
2019-03-22T12:32:11.805Z,30.50
2019-03-22T12:34:40.110Z,30.80
2019-03-22T12:37:08.160Z,31.10
2019-03-22T12:39:36.734Z,30.80
2019-03-22T12:42:04.875Z,30.60
2019-03-22T12:44:33.252Z,30.20
2019-03-22T12:47:02.218Z,29.90
2019-03-22T12:49:31.991Z,29.60
2019-03-22T12:52:01.227Z,29.50
2019-03-22T12:54:30.791Z,29.20
2019-03-22T12:56:58.947Z,29.00
2019-03-22T12:59:27.130Z,28.60
2019-03-22T13:01:56.247Z,28.50
2019-03-22T13:04:24.845Z,28.40
2019-03-22T13:06:53.229Z,28.40
2019-03-22T13:09:22.216Z,28.30
2019-03-22T13:11:50.630Z,28.10
2019-03-22T13:14:18.917Z,28.10
2019-03-22T13:16:47.516Z,27.80
2019-03-22T13:19:17.731Z,27.30
2019-03-22T13:21:45.826Z,27.00
2019-03-22T13:24:13.838Z,26.70
2019-03-22T13:26:42.182Z,26.70
2019-03-22T13:29:10.290Z,26.90
2019-03-22T13:31:38.391Z,26.80
2019-03-22T13:34:06.939Z,26.30
2019-03-22T13:36:35.009Z,25.80
2019-03-22T13:39:04.858Z,25.60
2019-03-22T13:41:33.175Z,25.50
2019-03-22T13:44:01.556Z,25.20
2019-03-22T13:46:39.734Z,25.10
2019-03-22T13:49:00.909Z,25.10
2019-03-22T13:51:29.875Z,24.90
2019-03-22T13:53:58.183Z,24.80
2019-03-22T13:56:26.314Z,24.60
2019-03-22T13:58:55.918Z,24.10
2019-03-22T14:01:24.222Z,24.00
2019-03-22T14:03:52.511Z,24.00
2019-03-22T14:06:20.919Z,23.70
2019-03-22T14:08:48.966Z,23.50
2019-03-22T14:11:17.291Z,23.50
2019-03-22T14:13:45.539Z,23.30
2019-03-22T14:16:13.656Z,23.40
2019-03-22T14:18:41.658Z,23.50
2019-03-22T14:21:10.168Z,23.40
2019-03-22T14:23:38.775Z,22.80
2019-03-22T14:26:06.921Z,22.20
2019-03-22T14:28:35.094Z,22.10
2019-03-22T14:31:03.300Z,21.80
2019-03-22T14:33:31.409Z,22.10
2019-03-22T14:35:59.694Z,22.00
2019-03-22T14:38:28.338Z,21.80
2019-03-22T14:40:56.617Z,22.00
2019-03-22T14:43:25.540Z,22.00
2019-03-22T14:45:53.655Z,21.80
2019-03-22T14:48:21.962Z,22.10
2019-03-22T14:50:52.098Z,21.80
2019-03-22T14:53:20.418Z,22.10
2019-03-22T14:55:48.442Z,21.80
2019-03-22T14:58:16.534Z,21.70
2019-03-22T15:00:44.913Z,21.80
2019-03-22T15:03:25.715Z,22.00
2019-03-22T15:05:56.070Z,22.00
2019-03-22T15:08:24.162Z,22.00
2019-03-22T15:10:52.418Z,22.00
2019-03-22T15:13:23.473Z,21.80
2019-03-22T15:16:16.975Z,21.60
2019-03-22T15:19:08.167Z,21.30
2019-03-22T15:22:04.551Z,21.50
2019-03-22T15:25:07.210Z,21.60
2019-03-22T15:27:52.740Z,21.80
2019-03-22T15:30:39.292Z,22.30
2019-03-22T15:33:43.302Z,21.70
2019-03-22T15:36:31.723Z,21.50
2019-03-22T15:39:18.045Z,21.40
2019-03-22T15:41:46.846Z,21.30
2019-03-22T15:44:15.082Z,21.40
2019-03-22T15:46:43.462Z,21.50
2019-03-22T15:49:12.287Z,21.70
2019-03-22T15:51:40.703Z,21.60
2019-03-22T15:54:09.118Z,21.10
2019-03-22T15:56:37.236Z,21.20
2019-03-22T15:59:05.284Z,21.60
2019-03-22T16:01:33.603Z,21.40
2019-03-22T16:04:02.679Z,21.20
2019-03-22T16:06:31.122Z,20.80
2019-03-22T16:09:00.591Z,21.10
2019-03-22T16:11:29.083Z,20.90
2019-03-22T16:13:58.886Z,20.70
2019-03-22T16:16:28.073Z,20.60
2019-03-22T16:18:57.708Z,20.70
2019-03-22T16:21:25.759Z,20.30
2019-03-22T16:23:54.548Z,20.60
2019-03-22T16:26:22.974Z,20.60
2019-03-22T16:28:52.742Z,20.40
2019-03-22T16:31:21.018Z,20.50
2019-03-22T16:33:54.373Z,20.40
2019-03-22T16:36:20.240Z,20.40
2019-03-22T16:38:51.664Z,20.10
2019-03-22T16:41:20.135Z,20.00
2019-03-22T16:43:49.035Z,20.20
2019-03-22T16:46:17.438Z,20.10
2019-03-22T16:48:45.505Z,20.20
2019-03-22T16:51:13.638Z,20.00
2019-03-22T16:53:41.914Z,20.00
2019-03-22T16:56:10.336Z,19.90
2019-03-22T16:58:39.711Z,19.80
2019-03-22T17:01:07.921Z,19.90
2019-03-22T17:03:36.201Z,19.70
2019-03-22T17:06:04.510Z,19.60
2019-03-22T17:08:32.767Z,19.40
2019-03-22T17:11:00.919Z,19.40
2019-03-22T17:13:29.270Z,19.60
2019-03-22T17:15:58.145Z,19.10
2019-03-22T17:18:26.576Z,19.10
2019-03-22T17:20:54.730Z,19.00
2019-03-22T17:23:23.183Z,18.90
2019-03-22T17:25:51.607Z,18.90
2019-03-22T17:28:21.033Z,18.80
2019-03-22T17:30:50.533Z,18.70
2019-03-22T17:33:19.521Z,18.60
2019-03-22T17:35:47.648Z,18.60
2019-03-22T17:38:16.064Z,18.00
2019-03-22T17:40:44.150Z,17.90
2019-03-22T17:43:12.158Z,18.00
2019-03-22T17:45:40.214Z,18.00
2019-03-22T17:48:08.172Z,17.80
2019-03-22T17:50:36.875Z,17.70
2019-03-22T17:53:05.142Z,17.90
2019-03-22T17:55:33.206Z,17.70
2019-03-22T17:58:01.458Z,17.60
2019-03-22T18:00:29.602Z,17.70
2019-03-22T18:02:58.058Z,17.60
2019-03-22T18:05:26.098Z,17.60
2019-03-22T18:07:55.120Z,17.30
2019-03-22T18:10:23.218Z,17.30
2019-03-22T18:12:52.543Z,17.30
2019-03-22T18:15:20.630Z,17.30
2019-03-22T18:17:49.245Z,17.10
2019-03-22T18:20:17.447Z,17.10
2019-03-22T18:22:45.912Z,17.00
2019-03-22T18:25:15.806Z,16.80
2019-03-22T18:27:44.041Z,16.90
2019-03-22T18:30:12.258Z,16.70
2019-03-22T18:32:41.690Z,16.40
2019-03-22T18:35:10.174Z,16.90
2019-03-22T18:37:38.684Z,16.60
2019-03-22T18:40:07.259Z,16.40
2019-03-22T18:42:35.414Z,16.40
2019-03-22T18:45:03.992Z,16.40
2019-03-22T18:47:31.971Z,16.30
2019-03-22T18:50:00.032Z,15.80
2019-03-22T18:52:28.387Z,16.20
2019-03-22T18:54:56.548Z,16.00
2019-03-22T18:57:27.891Z,15.90
2019-03-22T18:59:56.246Z,15.60
2019-03-22T19:02:24.561Z,15.70
2019-03-22T19:04:52.954Z,15.70
2019-03-22T19:07:21.242Z,16.00
2019-03-22T19:09:49.611Z,15.70
2019-03-22T19:12:18.032Z,15.80
2019-03-22T19:14:46.426Z,15.60
2019-03-22T19:17:14.730Z,15.60
2019-03-22T19:19:42.771Z,15.20
2019-03-22T19:22:10.775Z,15.10
2019-03-22T19:24:39.006Z,15.20
2019-03-22T19:27:07.371Z,15.10
2019-03-22T19:29:36.038Z,15.00
2019-03-22T19:32:13.244Z,15.10
2019-03-22T19:34:34.382Z,15.20
2019-03-22T19:37:03.175Z,14.80
2019-03-22T19:39:31.542Z,14.90
2019-03-22T19:41:59.663Z,15.10
2019-03-22T19:44:27.873Z,14.80
2019-03-22T19:46:56.297Z,14.90
2019-03-22T19:49:24.598Z,14.70
2019-03-22T19:51:53.127Z,14.70
2019-03-22T19:54:21.458Z,14.50
2019-03-22T19:56:49.921Z,14.60
2019-03-22T19:59:18.017Z,14.70
2019-03-22T20:01:46.155Z,14.70
2019-03-22T20:04:14.482Z,14.50
2019-03-22T20:06:42.619Z,14.50
2019-03-22T20:09:11.138Z,14.20
2019-03-22T20:11:39.624Z,14.30
2019-03-22T20:14:08.809Z,14.40
2019-03-22T20:16:37.225Z,14.40
2019-03-22T20:19:05.683Z,14.20
2019-03-22T20:21:33.755Z,13.80
2019-03-22T20:24:01.763Z,14.00
2019-03-22T20:26:29.951Z,14.00
2019-03-22T20:28:57.964Z,13.80
2019-03-22T20:31:26.506Z,14.00
2019-03-22T20:33:54.549Z,13.90
2019-03-22T20:36:22.614Z,14.00
2019-03-22T20:38:50.655Z,13.90
2019-03-22T20:41:19.678Z,13.70
2019-03-22T20:43:48.098Z,13.60
2019-03-22T20:46:16.239Z,13.80
2019-03-22T20:48:44.538Z,13.70
2019-03-22T20:51:12.662Z,13.90
2019-03-22T20:53:41.084Z,13.70
2019-03-22T20:56:09.803Z,13.60
2019-03-22T20:58:38.294Z,13.40
2019-03-22T21:01:07.143Z,13.40
2019-03-22T21:03:35.389Z,13.30
2019-03-22T21:06:04.573Z,13.30
2019-03-22T21:08:32.870Z,13.30
2019-03-22T21:11:00.935Z,13.10
2019-03-22T21:13:29.391Z,12.80
2019-03-22T21:15:57.506Z,12.80
2019-03-22T21:18:25.575Z,12.70
2019-03-22T21:20:53.675Z,12.70
2019-03-22T21:23:22.178Z,12.20
2019-03-22T21:25:50.310Z,12.10
2019-03-22T21:28:18.396Z,12.10
2019-03-22T21:30:46.863Z,12.20
2019-03-22T21:33:16.147Z,12.00
2019-03-22T21:35:44.607Z,12.00
2019-03-22T21:38:12.639Z,12.00
2019-03-22T21:40:40.959Z,11.80
2019-03-22T21:43:09.435Z,11.70
2019-03-22T21:45:37.902Z,11.80
2019-03-22T21:48:06.478Z,11.80
2019-03-22T21:50:34.932Z,11.90
2019-03-22T21:53:03.417Z,11.90
2019-03-22T21:55:31.523Z,11.80
2019-03-22T21:57:59.746Z,11.70
2019-03-22T22:00:28.494Z,11.90
2019-03-22T22:02:56.550Z,11.90
2019-03-22T22:05:24.602Z,11.50
2019-03-22T22:07:53.154Z,11.50
2019-03-22T22:10:21.983Z,11.60
2019-03-22T22:12:50.279Z,11.40
2019-03-22T22:15:18.535Z,11.30
2019-03-22T22:17:46.923Z,11.70
2019-03-22T22:20:15.298Z,11.20
2019-03-22T22:22:43.755Z,11.30
2019-03-22T22:25:11.902Z,11.10
2019-03-22T22:27:40.873Z,11.60
2019-03-22T22:30:09.114Z,11.10
2019-03-22T22:32:37.318Z,11.80
2019-03-22T22:35:06.462Z,11.50
2019-03-22T22:37:34.790Z,11.70
2019-03-22T22:40:03.171Z,11.60
2019-03-22T22:42:31.286Z,11.60
2019-03-22T22:44:59.338Z,11.50
2019-03-22T22:47:27.799Z,11.50
2019-03-22T22:49:56.263Z,11.50
2019-03-22T22:52:24.530Z,11.40
2019-03-22T22:54:52.645Z,11.40
2019-03-22T22:57:21.365Z,11.60
2019-03-22T22:59:49.831Z,11.40
2019-03-22T23:02:18.456Z,11.60
2019-03-22T23:04:46.680Z,11.50
2019-03-22T23:07:15.154Z,11.50
2019-03-22T23:09:43.671Z,11.40
2019-03-22T23:12:12.199Z,11.40
2019-03-22T23:14:40.311Z,11.30
2019-03-22T23:17:08.921Z,11.30
2019-03-22T23:19:36.962Z,11.00
2019-03-22T23:22:05.025Z,11.30
2019-03-22T23:24:33.150Z,11.00
2019-03-22T23:27:01.518Z,10.90
2019-03-22T23:29:29.547Z,10.80
2019-03-22T23:31:58.844Z,11.30
2019-03-22T23:34:26.900Z,11.20
2019-03-22T23:36:55.772Z,11.10
2019-03-22T23:39:24.564Z,11.10
2019-03-22T23:41:54.006Z,11.10
2019-03-22T23:44:22.411Z,11.10
2019-03-22T23:46:50.834Z,11.10
2019-03-22T23:49:19.180Z,11.20
2019-03-22T23:51:47.610Z,10.60
2019-03-22T23:54:16.370Z,10.80
2019-03-22T23:56:44.408Z,10.80
2019-03-22T23:59:12.850Z,11.10
